OJAI/AMM METAR and TAF weather

Enter ICAO airport designator
Station Type Date Time Source
OJAI METAR 2024/06/15 23:00 UTC NOAA

OJAI 152300Z 30008KT 6000 NSC 25/09 Q1011 NOSIG


Station Type Date Time Source
OJAI Decoded METAR 2024/06/15 23:00 UTC NOAA

Queen Alia Airport, Jordan (OJAI) 31-40N 035-58E
Jun 15, 2024 - 07:00 PM EDT / 2024.06.15 2300 UTC
Wind: from the WNW (300 degrees) at 9 MPH (8 KT):0
Visibility: 3 mile(s):0
Temperature: 77 F (25 C)
Dew Point: 48 F (9 C)
Relative Humidity: 36%
Pressure (altimeter): 29.85 in. Hg (1011 hPa)
ob: OJAI 152300Z 30008KT 6000 NSC 25/09 Q1011 NOSIG
cycle: 23

Station Type Date Time Source
OJAI TAF 2024/06/15 18:15 UTC NOAA